Terminal Aerodrome Forecast
Issued by NWS Boston, MA

Home | Current Version | Previous Version | Text Only | Print | Product List | Glossary On
Versions: 1 2 3 4 5 6 7 8 9 10 11 12 13 14 15 16 17 18 19 20 21 22 23 24 25 26 27 28 29 30
000
FTUS41 KBOX 240542 AAA
TAFORH
TAF AMD
KORH 240542Z 2406/2506 VRB03KT P6SM OVC060
     FM240800 04005KT P6SM VCSH OVC050
     FM241100 04005KT P6SM VCSH OVC030
     FM241200 04005KT P6SM VCSH OVC015
     FM241900 01004KT P6SM VCSH OVC020
     FM242200 VRB03KT P6SM OVC035=

USA.gov is the U.S. government's official web portal to all federal, state and local government web resources and services.